sensor_id;sensor_type;location;lat;lon;timestamp;temperature;humidity
59208;DHT22;44977;53.132;6.408;2023-03-01T00:04:49;0.50;99.90
59208;DHT22;44977;53.132;6.408;2023-03-01T00:09:50;0.50;99.90
59208;DHT22;44977;53.132;6.408;2023-03-01T00:14:50;0.40;99.90
59208;DHT22;44977;53.132;6.408;2023-03-01T00:19:51;0.40;99.90
59208;DHT22;44977;53.132;6.408;2023-03-01T00:24:52;0.30;99.90
59208;DHT22;44977;53.132;6.408;2023-03-01T00:29:52;0.30;99.90
59208;DHT22;44977;53.132;6.408;2023-03-01T00:34:53;0.30;99.90
59208;DHT22;44977;53.132;6.408;2023-03-01T00:39:57;0.20;99.90
59208;DHT22;44977;53.132;6.408;2023-03-01T00:44:57;0.20;99.90
59208;DHT22;44977;53.132;6.408;2023-03-01T00:49:58;0.20;99.90
59208;DHT22;44977;53.132;6.408;2023-03-01T00:54:58;0.10;99.90
59208;DHT22;44977;53.132;6.408;2023-03-01T01:00:00;0.10;99.90
59208;DHT22;44977;53.132;6.408;2023-03-01T01:05:00;0.00;99.90
59208;DHT22;44977;53.132;6.408;2023-03-01T01:10:01;-0.10;99.90
59208;DHT22;44977;53.132;6.408;2023-03-01T01:15:02;-0.10;99.90
59208;DHT22;44977;53.132;6.408;2023-03-01T01:20:03;-0.10;99.90
59208;DHT22;44977;53.132;6.408;2023-03-01T01:25:04;-0.20;99.90
59208;DHT22;44977;53.132;6.408;2023-03-01T01:30:05;-0.20;99.90
59208;DHT22;44977;53.132;6.408;2023-03-01T01:35:06;-0.20;99.90
59208;DHT22;44977;53.132;6.408;2023-03-01T01:40:08;-0.30;99.90
59208;DHT22;44977;53.132;6.408;2023-03-01T01:45:30;-0.30;99.90
59208;DHT22;44977;53.132;6.408;2023-03-01T01:50:33;-0.40;99.90
59208;DHT22;44977;53.132;6.408;2023-03-01T01:55:42;-0.40;99.90
59208;DHT22;44977;53.132;6.408;2023-03-01T02:00:43;-0.40;99.90
59208;DHT22;44977;53.132;6.408;2023-03-01T02:06:04;-0.40;99.90
59208;DHT22;44977;53.132;6.408;2023-03-01T02:11:05;-0.40;99.90
59208;DHT22;44977;53.132;6.408;2023-03-01T02:16:11;-0.50;99.90
59208;DHT22;44977;53.132;6.408;2023-03-01T02:26:48;-0.40;99.90
59208;DHT22;44977;53.132;6.408;2023-03-01T02:31:52;-0.50;99.90
59208;DHT22;44977;53.132;6.408;2023-03-01T02:37:03;-0.50;99.90
59208;DHT22;44977;53.132;6.408;2023-03-01T02:42:06;-0.50;99.90
59208;DHT22;44977;53.132;6.408;2023-03-01T02:47:07;-0.50;99.90
59208;DHT22;44977;53.132;6.408;2023-03-01T02:57:34;-0.60;99.90
59208;DHT22;44977;53.132;6.408;2023-03-01T03:02:36;-0.60;99.90
59208;DHT22;44977;53.132;6.408;2023-03-01T03:07:39;-0.70;99.90
59208;DHT22;44977;53.132;6.408;2023-03-01T03:12:41;-0.70;99.90
59208;DHT22;44977;53.132;6.408;2023-03-01T03:17:42;-0.70;99.90
59208;DHT22;44977;53.132;6.408;2023-03-01T03:22:43;-0.80;99.90
59208;DHT22;44977;53.132;6.408;2023-03-01T03:27:45;-0.80;99.90
59208;DHT22;44977;53.132;6.408;2023-03-01T03:32:47;-0.80;99.90
59208;DHT22;44977;53.132;6.408;2023-03-01T03:37:52;-0.90;99.90
59208;DHT22;44977;53.132;6.408;2023-03-01T03:43:05;-0.90;99.90
59208;DHT22;44977;53.132;6.408;2023-03-01T03:48:07;-0.90;99.90
59208;DHT22;44977;53.132;6.408;2023-03-01T03:53:11;-0.90;99.90
59208;DHT22;44977;53.132;6.408;2023-03-01T03:58:12;-1.00;99.90
59208;DHT22;44977;53.132;6.408;2023-03-01T04:03:15;-1.10;99.90
59208;DHT22;44977;53.132;6.408;2023-03-01T04:08:17;-1.20;99.90
59208;DHT22;44977;53.132;6.408;2023-03-01T04:13:22;-1.20;99.90
59208;DHT22;44977;53.132;6.408;2023-03-01T04:18:23;-1.20;99.90
59208;DHT22;44977;53.132;6.408;2023-03-01T04:23:25;-1.20;99.90
59208;DHT22;44977;53.132;6.408;2023-03-01T04:28:28;-1.20;99.90
59208;DHT22;44977;53.132;6.408;2023-03-01T04:33:29;-1.20;99.90
59208;DHT22;44977;53.132;6.408;2023-03-01T04:38:30;-1.20;99.90
59208;DHT22;44977;53.132;6.408;2023-03-01T04:43:30;-1.30;99.90
59208;DHT22;44977;53.132;6.408;2023-03-01T04:48:31;-1.30;99.90
59208;DHT22;44977;53.132;6.408;2023-03-01T04:53:33;-1.40;99.90
59208;DHT22;44977;53.132;6.408;2023-03-01T04:58:33;-1.40;99.90
59208;DHT22;44977;53.132;6.408;2023-03-01T05:03:34;-1.40;99.90
59208;DHT22;44977;53.132;6.408;2023-03-01T05:08:35;-1.40;99.90
59208;DHT22;44977;53.132;6.408;2023-03-01T05:13:38;-1.40;99.90
59208;DHT22;44977;53.132;6.408;2023-03-01T05:18:40;-1.50;99.90
59208;DHT22;44977;53.132;6.408;2023-03-01T05:23:41;-1.50;99.90
59208;DHT22;44977;53.132;6.408;2023-03-01T05:28:41;-1.60;99.90
59208;DHT22;44977;53.132;6.408;2023-03-01T05:33:42;-1.60;99.90
59208;DHT22;44977;53.132;6.408;2023-03-01T05:38:43;-1.60;99.90
59208;DHT22;44977;53.132;6.408;2023-03-01T05:43:44;-1.60;99.90
59208;DHT22;44977;53.132;6.408;2023-03-01T05:48:45;-1.70;99.90
59208;DHT22;44977;53.132;6.408;2023-03-01T05:53:45;-1.70;99.90
59208;DHT22;44977;53.132;6.408;2023-03-01T05:58:48;-1.80;99.90
59208;DHT22;44977;53.132;6.408;2023-03-01T06:03:49;-1.80;99.90
59208;DHT22;44977;53.132;6.408;2023-03-01T06:08:51;-1.80;99.90
59208;DHT22;44977;53.132;6.408;2023-03-01T06:13:52;-1.80;99.90
59208;DHT22;44977;53.132;6.408;2023-03-01T06:18:53;-1.80;99.90
59208;DHT22;44977;53.132;6.408;2023-03-01T06:23:54;-1.90;99.90
59208;DHT22;44977;53.132;6.408;2023-03-01T06:28:54;-1.90;99.90
59208;DHT22;44977;53.132;6.408;2023-03-01T06:33:55;-1.90;99.90
59208;DHT22;44977;53.132;6.408;2023-03-01T06:38:56;-1.90;99.90
59208;DHT22;44977;53.132;6.408;2023-03-01T06:43:56;-1.90;99.90
59208;DHT22;44977;53.132;6.408;2023-03-01T06:48:57;-2.00;99.90
59208;DHT22;44977;53.132;6.408;2023-03-01T06:53:58;-2.00;99.90
59208;DHT22;44977;53.132;6.408;2023-03-01T06:58:58;-2.00;99.90
59208;DHT22;44977;53.132;6.408;2023-03-01T07:03:59;-2.00;99.90
59208;DHT22;44977;53.132;6.408;2023-03-01T07:09:00;-2.00;99.90
59208;DHT22;44977;53.132;6.408;2023-03-01T07:14:00;-2.00;99.90
59208;DHT22;44977;53.132;6.408;2023-03-01T07:19:01;-1.90;99.90
59208;DHT22;44977;53.132;6.408;2023-03-01T07:24:02;-1.90;99.90
59208;DHT22;44977;53.132;6.408;2023-03-01T07:29:04;-1.80;99.90
59208;DHT22;44977;53.132;6.408;2023-03-01T07:34:05;-1.60;99.90
59208;DHT22;44977;53.132;6.408;2023-03-01T07:39:05;-1.50;99.90
59208;DHT22;44977;53.132;6.408;2023-03-01T07:44:09;-1.20;99.90
59208;DHT22;44977;53.132;6.408;2023-03-01T07:49:11;-1.10;99.90
59208;DHT22;44977;53.132;6.408;2023-03-01T07:54:11;-0.90;99.90
59208;DHT22;44977;53.132;6.408;2023-03-01T07:59:12;-0.70;99.90
59208;DHT22;44977;53.132;6.408;2023-03-01T08:04:13;-0.40;99.90
59208;DHT22;44977;53.132;6.408;2023-03-01T08:09:13;-0.10;99.90
59208;DHT22;44977;53.132;6.408;2023-03-01T08:14:14;0.20;99.90
59208;DHT22;44977;53.132;6.408;2023-03-01T08:19:15;0.50;99.90
59208;DHT22;44977;53.132;6.408;2023-03-01T08:24:16;0.80;99.90
59208;DHT22;44977;53.132;6.408;2023-03-01T08:29:16;1.10;99.90
59208;DHT22;44977;53.132;6.408;2023-03-01T08:34:18;1.40;99.90
59208;DHT22;44977;53.132;6.408;2023-03-01T08:39:20;1.60;99.90
59208;DHT22;44977;53.132;6.408;2023-03-01T08:44:21;2.00;99.90
59208;DHT22;44977;53.132;6.408;2023-03-01T08:49:21;2.30;99.90
59208;DHT22;44977;53.132;6.408;2023-03-01T08:54:22;2.50;99.90
59208;DHT22;44977;53.132;6.408;2023-03-01T08:59:23;2.80;99.90
59208;DHT22;44977;53.132;6.408;2023-03-01T09:04:25;3.20;99.90
59208;DHT22;44977;53.132;6.408;2023-03-01T09:09:26;3.40;99.90
59208;DHT22;44977;53.132;6.408;2023-03-01T09:14:27;3.70;99.90
59208;DHT22;44977;53.132;6.408;2023-03-01T09:19:28;4.00;99.90
59208;DHT22;44977;53.132;6.408;2023-03-01T09:24:28;4.30;99.90
59208;DHT22;44977;53.132;6.408;2023-03-01T09:29:29;4.50;99.90
59208;DHT22;44977;53.132;6.408;2023-03-01T09:34:30;4.80;99.90
59208;DHT22;44977;53.132;6.408;2023-03-01T09:39:31;5.00;99.90
59208;DHT22;44977;53.132;6.408;2023-03-01T09:44:52;5.10;99.90
59208;DHT22;44977;53.132;6.408;2023-03-01T09:50:16;5.40;99.90
59208;DHT22;44977;53.132;6.408;2023-03-01T09:55:25;5.80;99.90
59208;DHT22;44977;53.132;6.408;2023-03-01T10:00:36;6.10;99.90
59208;DHT22;44977;53.132;6.408;2023-03-01T10:06:09;6.30;99.90
59208;DHT22;44977;53.132;6.408;2023-03-01T10:11:31;6.50;99.90
59208;DHT22;44977;53.132;6.408;2023-03-01T10:17:03;6.90;99.90
59208;DHT22;44977;53.132;6.408;2023-03-01T10:22:29;7.10;99.90
59208;DHT22;44977;53.132;6.408;2023-03-01T10:27:40;7.40;99.90
59208;DHT22;44977;53.132;6.408;2023-03-01T10:32:44;7.70;99.90
59208;DHT22;44977;53.132;6.408;2023-03-01T10:43:05;8.00;99.90
59208;DHT22;44977;53.132;6.408;2023-03-01T10:53:22;8.50;99.90
59208;DHT22;44977;53.132;6.408;2023-03-01T10:58:28;8.70;99.90
59208;DHT22;44977;53.132;6.408;2023-03-01T11:03:31;8.80;99.90
59208;DHT22;44977;53.132;6.408;2023-03-01T11:08:50;8.90;99.90
59208;DHT22;44977;53.132;6.408;2023-03-01T11:19:28;9.00;99.50
59208;DHT22;44977;53.132;6.408;2023-03-01T11:24:41;9.20;98.20
59208;DHT22;44977;53.132;6.408;2023-03-01T11:29:46;9.30;95.80
59208;DHT22;44977;53.132;6.408;2023-03-01T11:35:00;9.40;96.50
59208;DHT22;44977;53.132;6.408;2023-03-01T11:50:58;9.50;91.80
59208;DHT22;44977;53.132;6.408;2023-03-01T12:17:54;9.80;91.30
59208;DHT22;44977;53.132;6.408;2023-03-01T12:38:49;10.00;89.50
59208;DHT22;44977;53.132;6.408;2023-03-01T12:44:11;10.10;90.20
59208;DHT22;44977;53.132;6.408;2023-03-01T12:49:16;10.00;86.90
59208;DHT22;44977;53.132;6.408;2023-03-01T12:54:30;9.80;81.90
59208;DHT22;44977;53.132;6.408;2023-03-01T13:05:29;9.60;85.40
59208;DHT22;44977;53.132;6.408;2023-03-01T13:10:56;9.50;85.70
59208;DHT22;44977;53.132;6.408;2023-03-01T13:21:37;9.40;87.60
59208;DHT22;44977;53.132;6.408;2023-03-01T13:27:42;9.40;85.80
59208;DHT22;44977;53.132;6.408;2023-03-01T13:37:29;9.20;87.40
59208;DHT22;44977;53.132;6.408;2023-03-01T13:42:37;9.10;86.00
59208;DHT22;44977;53.132;6.408;2023-03-01T13:47:38;9.00;86.70
59208;DHT22;44977;53.132;6.408;2023-03-01T13:52:49;9.00;87.30
59208;DHT22;44977;53.132;6.408;2023-03-01T13:57:55;8.90;87.20
59208;DHT22;44977;53.132;6.408;2023-03-01T14:03:14;8.90;89.20
59208;DHT22;44977;53.132;6.408;2023-03-01T14:08:21;9.00;90.00
59208;DHT22;44977;53.132;6.408;2023-03-01T14:23:59;8.90;90.60
59208;DHT22;44977;53.132;6.408;2023-03-01T14:28:59;8.90;90.80
59208;DHT22;44977;53.132;6.408;2023-03-01T14:34:00;8.80;91.00
59208;DHT22;44977;53.132;6.408;2023-03-01T14:39:15;8.80;91.00
59208;DHT22;44977;53.132;6.408;2023-03-01T14:44:23;8.90;91.20
59208;DHT22;44977;53.132;6.408;2023-03-01T14:49:27;8.80;91.60
59208;DHT22;44977;53.132;6.408;2023-03-01T14:54:35;8.80;91.80
59208;DHT22;44977;53.132;6.408;2023-03-01T14:59:36;8.70;92.00
59208;DHT22;44977;53.132;6.408;2023-03-01T15:04:37;8.70;92.70
59208;DHT22;44977;53.132;6.408;2023-03-01T15:09:39;8.70;93.70
59208;DHT22;44977;53.132;6.408;2023-03-01T15:14:42;8.70;94.20
59208;DHT22;44977;53.132;6.408;2023-03-01T15:19:46;8.70;94.30
59208;DHT22;44977;53.132;6.408;2023-03-01T15:24:49;8.60;94.30
59208;DHT22;44977;53.132;6.408;2023-03-01T15:29:53;8.50;94.90
59208;DHT22;44977;53.132;6.408;2023-03-01T15:34:57;8.50;95.30
59208;DHT22;44977;53.132;6.408;2023-03-01T15:39:57;8.40;95.80
59208;DHT22;44977;53.132;6.408;2023-03-01T15:45:21;8.40;96.50
59208;DHT22;44977;53.132;6.408;2023-03-01T15:50:25;8.40;96.90
59208;DHT22;44977;53.132;6.408;2023-03-01T15:55:31;8.30;96.90
59208;DHT22;44977;53.132;6.408;2023-03-01T16:00:33;8.20;96.50
59208;DHT22;44977;53.132;6.408;2023-03-01T16:05:35;8.10;97.50
59208;DHT22;44977;53.132;6.408;2023-03-01T16:10:36;8.00;98.20
59208;DHT22;44977;53.132;6.408;2023-03-01T16:15:38;8.00;98.20
59208;DHT22;44977;53.132;6.408;2023-03-01T16:20:40;7.90;99.10
59208;DHT22;44977;53.132;6.408;2023-03-01T16:25:40;7.80;99.20
59208;DHT22;44977;53.132;6.408;2023-03-01T16:30:46;7.70;99.90
59208;DHT22;44977;53.132;6.408;2023-03-01T16:35:48;7.60;99.90
59208;DHT22;44977;53.132;6.408;2023-03-01T16:40:51;7.50;99.90
59208;DHT22;44977;53.132;6.408;2023-03-01T16:45:52;7.50;99.90
59208;DHT22;44977;53.132;6.408;2023-03-01T16:51:00;7.30;99.90
59208;DHT22;44977;53.132;6.408;2023-03-01T16:56:03;7.30;99.90
59208;DHT22;44977;53.132;6.408;2023-03-01T17:01:06;7.20;99.90
59208;DHT22;44977;53.132;6.408;2023-03-01T17:06:12;7.10;99.90
59208;DHT22;44977;53.132;6.408;2023-03-01T17:11:16;7.00;99.90
59208;DHT22;44977;53.132;6.408;2023-03-01T17:16:18;7.00;99.90
59208;DHT22;44977;53.132;6.408;2023-03-01T17:21:19;6.90;99.90
59208;DHT22;44977;53.132;6.408;2023-03-01T17:26:20;6.70;99.90
59208;DHT22;44977;53.132;6.408;2023-03-01T17:31:22;6.60;99.90
59208;DHT22;44977;53.132;6.408;2023-03-01T17:36:23;6.60;99.90
59208;DHT22;44977;53.132;6.408;2023-03-01T17:41:23;6.40;99.90
59208;DHT22;44977;53.132;6.408;2023-03-01T17:46:24;6.40;99.90
59208;DHT22;44977;53.132;6.408;2023-03-01T17:51:26;6.20;99.90
59208;DHT22;44977;53.132;6.408;2023-03-01T17:56:27;6.20;99.90
59208;DHT22;44977;53.132;6.408;2023-03-01T18:01:27;6.10;99.90
59208;DHT22;44977;53.132;6.408;2023-03-01T18:06:28;6.10;99.90
59208;DHT22;44977;53.132;6.408;2023-03-01T18:11:29;6.00;99.90
59208;DHT22;44977;53.132;6.408;2023-03-01T18:16:30;5.90;99.90
59208;DHT22;44977;53.132;6.408;2023-03-01T18:21:31;5.90;99.90
59208;DHT22;44977;53.132;6.408;2023-03-01T18:26:31;5.80;99.90
59208;DHT22;44977;53.132;6.408;2023-03-01T18:31:32;5.80;99.90
59208;DHT22;44977;53.132;6.408;2023-03-01T18:36:34;5.80;99.90
59208;DHT22;44977;53.132;6.408;2023-03-01T18:41:35;5.70;99.90
59208;DHT22;44977;53.132;6.408;2023-03-01T18:46:37;5.60;99.90
59208;DHT22;44977;53.132;6.408;2023-03-01T18:51:39;5.50;99.90
59208;DHT22;44977;53.132;6.408;2023-03-01T18:56:40;5.40;99.90
59208;DHT22;44977;53.132;6.408;2023-03-01T19:01:41;5.30;99.90
59208;DHT22;44977;53.132;6.408;2023-03-01T19:06:42;5.20;99.90
59208;DHT22;44977;53.132;6.408;2023-03-01T19:11:43;5.20;99.90
59208;DHT22;44977;53.132;6.408;2023-03-01T19:16:44;5.00;99.90
59208;DHT22;44977;53.132;6.408;2023-03-01T19:21:44;5.00;99.90
59208;DHT22;44977;53.132;6.408;2023-03-01T19:26:45;4.90;99.90
59208;DHT22;44977;53.132;6.408;2023-03-01T19:31:46;4.80;99.90
59208;DHT22;44977;53.132;6.408;2023-03-01T19:36:46;4.70;99.90
59208;DHT22;44977;53.132;6.408;2023-03-01T19:41:47;4.70;99.90
59208;DHT22;44977;53.132;6.408;2023-03-01T19:46:49;4.50;99.90
59208;DHT22;44977;53.132;6.408;2023-03-01T19:51:50;4.50;99.90
59208;DHT22;44977;53.132;6.408;2023-03-01T19:56:51;4.40;99.90
59208;DHT22;44977;53.132;6.408;2023-03-01T20:01:52;4.40;99.90
59208;DHT22;44977;53.132;6.408;2023-03-01T20:06:53;4.40;99.90
59208;DHT22;44977;53.132;6.408;2023-03-01T20:11:53;4.40;99.90
59208;DHT22;44977;53.132;6.408;2023-03-01T20:16:54;4.40;99.90
59208;DHT22;44977;53.132;6.408;2023-03-01T20:21:55;4.40;99.90
59208;DHT22;44977;53.132;6.408;2023-03-01T20:26:55;4.30;99.90
59208;DHT22;44977;53.132;6.408;2023-03-01T20:31:56;4.30;99.90
59208;DHT22;44977;53.132;6.408;2023-03-01T20:36:57;4.30;99.90
59208;DHT22;44977;53.132;6.408;2023-03-01T20:42:00;4.30;99.90
59208;DHT22;44977;53.132;6.408;2023-03-01T20:47:01;4.30;99.90
59208;DHT22;44977;53.132;6.408;2023-03-01T20:52:02;4.30;99.90
59208;DHT22;44977;53.132;6.408;2023-03-01T20:57:03;4.30;99.90
59208;DHT22;44977;53.132;6.408;2023-03-01T21:02:03;4.30;99.90
59208;DHT22;44977;53.132;6.408;2023-03-01T21:07:04;4.30;99.90
59208;DHT22;44977;53.132;6.408;2023-03-01T21:12:05;4.20;99.90
59208;DHT22;44977;53.132;6.408;2023-03-01T21:17:13;4.20;99.90
59208;DHT22;44977;53.132;6.408;2023-03-01T21:22:15;4.20;99.90
59208;DHT22;44977;53.132;6.408;2023-03-01T21:27:16;4.20;99.90
59208;DHT22;44977;53.132;6.408;2023-03-01T21:32:17;4.20;99.90
59208;DHT22;44977;53.132;6.408;2023-03-01T21:37:17;4.20;99.90
59208;DHT22;44977;53.132;6.408;2023-03-01T21:42:21;4.20;99.90
59208;DHT22;44977;53.132;6.408;2023-03-01T21:47:25;4.20;99.90
59208;DHT22;44977;53.132;6.408;2023-03-01T21:52:26;4.10;99.90
59208;DHT22;44977;53.132;6.408;2023-03-01T21:57:26;4.10;99.90
59208;DHT22;44977;53.132;6.408;2023-03-01T22:02:27;4.10;99.90
59208;DHT22;44977;53.132;6.408;2023-03-01T22:07:29;4.10;99.90
59208;DHT22;44977;53.132;6.408;2023-03-01T22:12:30;4.10;99.90
59208;DHT22;44977;53.132;6.408;2023-03-01T22:17:31;4.00;99.90
59208;DHT22;44977;53.132;6.408;2023-03-01T22:22:31;4.00;99.90
59208;DHT22;44977;53.132;6.408;2023-03-01T22:27:33;4.00;99.90
59208;DHT22;44977;53.132;6.408;2023-03-01T22:32:33;3.90;99.90
59208;DHT22;44977;53.132;6.408;2023-03-01T22:37:34;3.90;99.90
59208;DHT22;44977;53.132;6.408;2023-03-01T22:42:35;3.90;99.90
59208;DHT22;44977;53.132;6.408;2023-03-01T22:47:36;3.90;99.90
59208;DHT22;44977;53.132;6.408;2023-03-01T22:52:37;3.90;99.90
59208;DHT22;44977;53.132;6.408;2023-03-01T22:57:39;3.80;99.90
59208;DHT22;44977;53.132;6.408;2023-03-01T23:02:39;3.80;99.90
59208;DHT22;44977;53.132;6.408;2023-03-01T23:07:41;3.80;99.90
59208;DHT22;44977;53.132;6.408;2023-03-01T23:12:44;3.80;99.90
59208;DHT22;44977;53.132;6.408;2023-03-01T23:17:45;3.80;99.90
59208;DHT22;44977;53.132;6.408;2023-03-01T23:22:46;3.80;99.90
59208;DHT22;44977;53.132;6.408;2023-03-01T23:27:46;3.70;99.90
59208;DHT22;44977;53.132;6.408;2023-03-01T23:32:47;3.70;99.90
59208;DHT22;44977;53.132;6.408;2023-03-01T23:37:48;3.70;99.90
59208;DHT22;44977;53.132;6.408;2023-03-01T23:42:48;3.70;99.90
59208;DHT22;44977;53.132;6.408;2023-03-01T23:47:49;3.70;99.90
59208;DHT22;44977;53.132;6.408;2023-03-01T23:52:49;3.70;99.90
59208;DHT22;44977;53.132;6.408;2023-03-01T23:57:50;3.60;99.90
